Time;durP1;ratioP1;P1;durP2;ratioP2;P2;SDS_P1;SDS_P2;PMS_P1;PMS_P2;Temp;Humidity;BMP_temperature;BMP_pressure;BME280_temperature;BME280_humidity;BME280_pressure;Samples;Min_cycle;Max_cycle;Signal;HPM_P1;HPM_P2
2023/09/20 00:00:52;;;;;;;11.52;3.40;;;538.20;2406.40;;;;;;5034802;28;20029;-71
2023/09/20 00:03:19;;;;;;;6.25;2.60;;;538.30;2406.40;;;;;;5034885;28;20075;-74
2023/09/20 00:05:47;;;;;;;8.40;2.67;;;538.10;2406.40;;;;;;5034500;28;20090;-73
2023/09/20 00:08:13;;;;;;;7.53;2.83;;;;;;;;;;5035346;28;20025;-72
2023/09/20 00:10:40;;;;;;;7.18;2.53;;;538.00;2406.40;;;;;;5034491;28;20072;-71
2023/09/20 00:13:06;;;;;;;16.52;3.55;;;538.00;2406.40;;;;;;5034770;28;20025;-71
2023/09/20 00:15:32;;;;;;;6.32;2.92;;;538.00;2406.40;;;;;;5034499;28;20036;-72
2023/09/20 00:17:58;;;;;;;5.50;2.75;;;538.00;2406.40;;;;;;5034596;28;20013;-71
2023/09/20 00:20:25;;;;;;;7.03;2.60;;;537.90;2406.40;;;;;;5033944;28;20080;-72
2023/09/20 00:22:51;;;;;;;4.90;2.55;;;537.80;2406.40;;;;;;5034220;28;20072;-72
2023/09/20 00:25:17;;;;;;;5.60;2.90;;;537.70;2406.40;;;;;;5034302;28;20033;-72
2023/09/20 00:27:46;;;;;;;9.15;3.22;;;537.80;2406.40;;;;;;5034469;28;20021;-73
2023/09/20 00:30:14;;;;;;;4.35;2.92;;;;;;;;;;5034135;28;20441;-71
2023/09/20 00:32:40;;;;;;;7.65;2.80;;;;;;;;;;5034244;28;20029;-71
2023/09/20 00:35:08;;;;;;;6.68;2.70;;;;;;;;;;5033945;28;20052;-72
2023/09/20 00:37:34;;;;;;;7.50;3.35;;;;;;;;;;5033965;28;20481;-71
2023/09/20 00:40:00;;;;;;;5.15;2.45;;;;;;;;;;5033982;28;20374;-72
2023/09/20 00:42:27;;;;;;;6.25;2.95;;;;;;;;;;5034185;28;20033;-72
2023/09/20 00:44:53;;;;;;;5.82;2.72;;;;;;;;;;5033814;28;20025;-74
2023/09/20 00:47:20;;;;;;;4.70;2.40;;;;;;;;;;5033959;28;20032;-72
2023/09/20 00:49:46;;;;;;;5.90;2.40;;;;;;;;;;5033690;28;20022;-71
2023/09/20 00:52:13;;;;;;;4.93;2.63;;;;;;;;;;5033849;28;20069;-71
2023/09/20 00:54:41;;;;;;;5.90;2.97;;;;;;;;;;5033386;28;20014;-72
2023/09/20 00:57:09;;;;;;;8.82;2.60;;;;;;;;;;5033998;28;20057;-73
2023/09/20 00:59:36;;;;;;;4.30;2.15;;;;;;;;;;5028768;28;20413;-71
2023/09/20 01:02:03;;;;;;;9.27;2.88;;;;;;;;;;5025754;28;20022;-71
2023/09/20 01:04:29;;;;;;;7.22;2.70;;;;;;;;;;5033443;28;20018;-72
2023/09/20 01:06:55;;;;;;;4.53;2.47;;;;;;;;;;5033340;28;20481;-72
2023/09/20 01:09:22;;;;;;;7.03;2.72;;;;;;;;;;5033183;28;20025;-72
2023/09/20 01:11:49;;;;;;;6.00;2.78;;;;;;;;;;5032843;28;20536;-72
2023/09/20 01:14:15;;;;;;;5.32;2.47;;;;;;;;;;5033425;28;20028;-73
2023/09/20 01:16:41;;;;;;;6.55;2.72;;;;;;;;;;5033391;28;20064;-74
2023/09/20 01:19:06;;;;;;;6.50;2.15;;;537.60;2406.40;;;;;;5033258;28;20036;-71
2023/09/20 01:21:52;;;;;;;5.03;2.60;;;512.70;2380.80;;;;;;5033282;28;20049;-74
2023/09/20 01:24:20;;;;;;;6.47;2.55;;;512.80;2380.80;;;;;;5033272;28;20394;-71
2023/09/20 01:26:48;;;;;;;3.78;2.28;;;512.60;2380.80;;;;;;5015590;28;20122;-71
2023/09/20 01:29:14;;;;;;;7.00;2.60;;;512.70;2380.80;;;;;;5033294;28;20021;-72
2023/09/20 01:31:40;;;;;;;6.07;2.88;;;512.80;2380.80;;;;;;5033287;28;20485;-70
2023/09/20 01:34:06;;;;;;;3.67;2.33;;;512.80;2380.80;;;;;;5033368;28;20485;-71
2023/09/20 01:36:32;;;;;;;9.50;2.70;;;512.80;2380.80;;;;;;5032960;28;20021;-71
2023/09/20 01:38:58;;;;;;;4.70;2.30;;;512.90;2380.80;;;;;;5033131;28;20357;-71
2023/09/20 01:41:25;;;;;;;8.38;2.78;;;512.90;2380.80;;;;;;5032980;28;20103;-71
2023/09/20 01:43:51;;;;;;;5.65;2.80;;;512.90;2380.80;;;;;;5033114;28;20068;-71
2023/09/20 01:46:17;;;;;;;7.68;2.58;;;512.80;2380.80;;;;;;5032890;28;20021;-71
2023/09/20 01:48:43;;;;;;;5.97;3.03;;;512.70;2380.80;;;;;;5033022;28;20531;-71
2023/09/20 01:51:09;;;;;;;5.47;2.58;;;512.60;2380.80;;;;;;5032598;28;20034;-71
2023/09/20 01:53:35;;;;;;;9.07;2.50;;;512.50;2380.80;;;;;;5033030;28;20013;-71
2023/09/20 01:56:00;;;;;;;5.38;2.60;;;512.40;2380.80;;;;;;5032548;28;20108;-71
2023/09/20 01:58:26;;;;;;;9.45;2.65;;;512.40;2380.80;;;;;;5032869;28;20112;-73
2023/09/20 02:00:52;;;;;;;7.65;2.67;;;512.40;2380.80;;;;;;5032912;28;20469;-72
2023/09/20 02:03:18;;;;;;;12.32;3.45;;;512.30;2380.80;;;;;;5032885;28;20109;-72
2023/09/20 02:05:47;;;;;;;5.63;2.70;;;512.30;2380.80;;;;;;5032711;28;20017;-72
2023/09/20 02:08:13;;;;;;;8.63;2.78;;;512.30;2380.80;;;;;;5032928;28;20022;-71
2023/09/20 02:10:39;;;;;;;8.50;2.92;;;512.30;2380.80;;;;;;5032417;28;20080;-72
2023/09/20 02:13:06;;;;;;;5.78;2.47;;;512.20;2380.80;;;;;;5013321;28;20473;-74
2023/09/20 02:15:34;;;;;;;12.38;3.28;;;512.20;2380.80;;;;;;5027173;28;20028;-71
2023/09/20 02:18:05;;;;;;;11.00;3.00;;;512.20;2380.80;;;;;;5032894;28;20100;-74
2023/09/20 02:20:34;;;;;;;5.55;2.97;;;512.20;2380.80;;;;;;5032447;28;20045;-72
2023/09/20 02:23:00;;;;;;;12.60;3.15;;;512.20;2380.80;;;;;;5036421;28;20022;-72
2023/09/20 02:25:26;;;;;;;8.90;3.80;;;512.20;2380.80;;;;;;5036413;28;20393;-71
2023/09/20 02:27:58;;;;;;;11.20;3.60;;;512.20;2380.80;;;;;;5036514;28;20014;-72
2023/09/20 02:30:28;;;;;;;13.23;3.30;;;512.10;2380.80;;;;;;5036466;28;20034;-74
2023/09/20 02:32:57;;;;;;;9.50;3.67;;;512.20;2380.80;;;;;;5026100;28;20061;-72
2023/09/20 02:35:24;;;;;;;9.25;3.50;;;512.20;2380.80;;;;;;5033879;28;20037;-71
2023/09/20 02:37:51;;;;;;;7.40;3.53;;;512.20;2380.80;;;;;;5036606;28;20021;-74
2023/09/20 02:40:23;;;;;;;8.05;3.95;;;512.30;2380.80;;;;;;5036504;28;20489;-72
2023/09/20 02:42:55;;;;;;;6.18;3.20;;;512.40;2380.80;;;;;;5036359;28;20130;-74
2023/09/20 02:45:24;;;;;;;8.13;3.08;;;512.20;2380.80;;;;;;5036287;28;20119;-71
2023/09/20 02:47:51;;;;;;;6.13;3.28;;;512.00;2380.80;;;;;;5035780;28;20079;-71
2023/09/20 02:50:18;;;;;;;10.20;3.92;;;512.00;2380.80;;;;;;5036090;28;20519;-72
2023/09/20 02:52:46;;;;;;;7.85;3.92;;;487.30;2380.80;;;;;;5035572;28;20091;-71
2023/09/20 02:55:13;;;;;;;8.80;4.70;;;487.30;2380.80;;;;;;5036035;28;20049;-71
2023/09/20 02:57:42;;;;;;;10.80;4.43;;;487.20;2380.80;;;;;;5035926;28;20021;-71
2023/09/20 03:00:16;;;;;;;11.55;4.13;;;487.20;2380.80;;;;;;5036163;28;20045;-71
2023/09/20 03:02:51;;;;;;;15.10;4.47;;;487.30;2380.80;;;;;;5035871;28;20022;-73
2023/09/20 03:05:21;;;;;;;9.82;4.68;;;487.30;2380.80;;;;;;5036178;28;20032;-74
2023/09/20 03:07:48;;;;;;;15.07;4.13;;;487.30;2380.80;;;;;;5035551;28;20412;-74
2023/09/20 03:10:15;;;;;;;7.45;4.00;;;512.00;2380.80;;;;;;5035808;28;20034;-71
2023/09/20 03:12:43;;;;;;;11.48;4.00;;;512.00;2380.80;;;;;;5035632;28;20014;-72
2023/09/20 03:15:11;;;;;;;13.40;4.80;;;487.30;2380.80;;;;;;5035718;28;20080;-72
2023/09/20 03:17:38;;;;;;;8.77;3.78;;;487.30;2380.80;;;;;;5035475;28;20017;-71
2023/09/20 03:23:05;;;;;;;14.23;4.97;;;487.30;2380.80;;;;;;4964795;28;20098;-71
2023/09/20 03:25:37;;;;;;;9.35;4.70;;;487.30;2380.80;;;;;;4974325;28;20431;-71
2023/09/20 03:28:04;;;;;;;9.30;3.65;;;487.20;2380.80;;;;;;4974707;28;20035;-72
2023/09/20 03:30:33;;;;;;;9.32;4.20;;;487.20;2380.80;;;;;;4974578;28;20085;-74
2023/09/20 03:33:00;;;;;;;6.35;3.72;;;487.30;2380.80;;;;;;4973865;28;20062;-72
2023/09/20 03:35:26;;;;;;;9.18;3.80;;;487.10;2380.80;;;;;;4974620;28;20030;-71
2023/09/20 03:37:52;;;;;;;7.75;3.92;;;487.00;2380.80;;;;;;4974532;28;20118;-72
2023/09/20 03:40:19;;;;;;;8.73;5.03;;;486.80;2380.80;;;;;;4974342;28;20549;-71
2023/09/20 03:42:46;;;;;;;7.60;4.03;;;486.50;2380.80;;;;;;4974500;28;20493;-71
2023/09/20 03:45:16;;;;;;;11.27;4.40;;;486.50;2380.80;;;;;;4974476;28;20035;-72
2023/09/20 03:47:47;;;;;;;10.20;4.00;;;486.60;2380.80;;;;;;4974410;28;20537;-71
2023/09/20 03:50:13;;;;;;;13.10;4.38;;;486.70;2380.80;;;;;;4987241;28;20033;-71
2023/09/20 03:52:39;;;;;;;15.27;4.28;;;486.50;2380.80;;;;;;4974083;28;20057;-72
2023/09/20 03:55:06;;;;;;;11.50;4.68;;;486.60;2380.80;;;;;;4974123;28;20038;-73
2023/09/20 03:57:32;;;;;;;12.82;5.85;;;486.40;2380.80;;;;;;4975957;28;20026;-71
2023/09/20 03:59:59;;;;;;;17.50;5.00;;;486.40;2380.80;;;;;;5034777;28;20017;-71
2023/09/20 04:02:26;;;;;;;9.95;4.05;;;486.40;2380.80;;;;;;5034689;28;20025;-71
2023/09/20 04:04:55;;;;;;;11.98;4.40;;;486.50;2380.80;;;;;;5034645;28;20096;-71
2023/09/20 04:07:26;;;;;;;12.93;4.15;;;486.50;2380.80;;;;;;5034483;28;20029;-70
2023/09/20 04:09:52;;;;;;;12.73;4.47;;;486.50;2380.80;;;;;;5034698;28;20064;-70
2023/09/20 04:12:18;;;;;;;10.85;3.75;;;486.60;2380.80;;;;;;5034589;28;20013;-71
2023/09/20 04:14:43;;;;;;;10.25;4.15;;;486.70;2380.80;;;;;;5034612;28;20132;-70
2023/09/20 04:17:09;;;;;;;12.00;5.15;;;486.70;2380.80;;;;;;5034310;28;20030;-71
2023/09/20 04:19:39;;;;;;;9.02;4.60;;;486.80;2380.80;;;;;;5034220;28;20104;-73
2023/09/20 04:22:06;;;;;;;10.75;3.83;;;486.70;2380.80;;;;;;5034177;28;20080;-71
2023/09/20 04:24:32;;;;;;;12.32;5.03;;;486.70;2380.80;;;;;;5034382;28;20033;-73
2023/09/20 04:26:59;;;;;;;13.65;5.18;;;486.80;2380.80;;;;;;5034419;28;20104;-71
2023/09/20 04:29:25;;;;;;;8.88;4.38;;;486.80;2380.80;;;;;;5034312;28;20062;-70
2023/09/20 04:31:52;;;;;;;12.60;4.35;;;486.80;2380.80;;;;;;5034255;28;20033;-71
2023/09/20 04:34:18;;;;;;;12.98;4.57;;;486.70;2380.80;;;;;;5025628;28;20021;-70
2023/09/20 04:36:45;;;;;;;14.55;5.72;;;486.80;2380.80;;;;;;5016289;28;20033;-71
2023/09/20 04:39:12;;;;;;;17.80;4.85;;;486.80;2380.80;;;;;;5034022;28;20053;-71
2023/09/20 04:41:38;;;;;;;15.43;5.32;;;486.80;2380.80;;;;;;5034058;28;20033;-70
2023/09/20 04:44:06;;;;;;;16.80;5.72;;;486.80;2380.80;;;;;;5034115;28;20029;-72
2023/09/20 04:46:35;;;;;;;12.13;4.88;;;487.00;2380.80;;;;;;5033872;28;20009;-72
2023/09/20 04:49:05;;;;;;;9.80;5.05;;;486.50;2380.80;;;;;;5033977;28;20014;-75
2023/09/20 04:51:31;;;;;;;13.85;5.13;;;486.50;2380.80;;;;;;5033687;28;20465;-77
2023/09/20 04:53:57;;;;;;;15.63;5.20;;;486.50;2380.80;;;;;;5027840;28;20105;-78
2023/09/20 04:56:23;;;;;;;12.40;5.13;;;486.70;2380.80;;;;;;5022980;28;20080;-77
2023/09/20 04:58:49;;;;;;;17.70;6.82;;;486.80;2380.80;;;;;;5022816;28;20013;-76
2023/09/20 05:01:15;;;;;;;16.65;6.45;;;486.80;2380.80;;;;;;5008442;28;20473;-76
2023/09/20 05:03:41;;;;;;;15.75;5.47;;;486.80;2380.80;;;;;;5022904;28;20056;-76
2023/09/20 05:06:07;;;;;;;14.32;5.20;;;486.80;2380.80;;;;;;5020936;28;20025;-75
2023/09/20 05:08:33;;;;;;;12.35;5.75;;;486.90;2380.80;;;;;;5024869;28;20053;-76
2023/09/20 05:10:59;;;;;;;11.15;5.28;;;486.90;2380.80;;;;;;5027772;28;20057;-75
2023/09/20 05:13:25;;;;;;;21.88;6.53;;;486.80;2380.80;;;;;;5029642;28;20555;-76
2023/09/20 05:15:50;;;;;;;18.27;6.88;;;486.90;2380.80;;;;;;5027207;28;20543;-75
2023/09/20 05:18:18;;;;;;;19.48;5.70;;;487.00;2380.80;;;;;;5025567;28;20347;-74
2023/09/20 05:20:45;;;;;;;18.88;5.85;;;487.10;2380.80;;;;;;5018860;28;20127;-76
2023/09/20 05:23:11;;;;;;;19.33;5.68;;;487.10;2380.80;;;;;;5022569;28;20061;-76
2023/09/20 05:25:37;;;;;;;13.10;5.90;;;487.20;2380.80;;;;;;5023055;28;20030;-76
2023/09/20 05:28:04;;;;;;;17.15;5.93;;;487.30;2380.80;;;;;;5015299;28;20096;-76
2023/09/20 05:30:30;;;;;;;17.92;6.63;;;512.00;2380.80;;;;;;5022143;28;20038;-77
2023/09/20 05:32:56;;;;;;;20.05;7.15;;;512.10;2380.80;;;;;;5015117;28;20469;-78
2023/09/20 05:35:22;;;;;;;20.25;6.68;;;512.10;2380.80;;;;;;5009989;28;20107;-76
2023/09/20 05:37:48;;;;;;;16.63;6.78;;;512.20;2380.80;;;;;;5025442;28;20080;-76
2023/09/20 05:40:17;;;;;;;11.15;6.13;;;512.30;2380.80;;;;;;5026415;28;20029;-76
2023/09/20 05:42:46;;;;;;;17.67;6.28;;;512.50;2380.80;;;;;;5028089;28;20499;-74
2023/09/20 05:45:13;;;;;;;13.40;5.85;;;512.60;2380.80;;;;;;5014695;28;20040;-76
2023/09/20 05:47:42;;;;;;;20.58;6.53;;;537.80;2406.40;;;;;;5022523;28;20044;-76
2023/09/20 05:50:13;;;;;;;17.05;5.40;;;512.80;2380.80;;;;;;5007198;28;20034;-76
2023/09/20 05:52:41;;;;;;;12.75;6.95;;;512.90;2380.80;;;;;;5021316;28;20050;-77
2023/09/20 05:55:11;;;;;;;16.63;7.70;;;537.60;2406.40;;;;;;5026174;28;20030;-76
2023/09/20 05:57:38;;;;;;;23.52;7.68;;;537.70;2406.40;;;;;;5032592;28;20083;-75
2023/09/20 06:00:18;;;;;;;14.02;7.57;;;537.90;2406.40;;;;;;5034294;28;20033;-77
2023/09/20 06:02:44;;;;;;;12.43;5.70;;;537.80;2406.40;;;;;;5029696;28;20017;-78
2023/09/20 06:05:11;;;;;;;10.75;5.43;;;537.80;2406.40;;;;;;5023406;28;20039;-76
2023/09/20 06:07:40;;;;;;;10.05;4.78;;;538.00;2406.40;;;;;;5031437;28;20056;-78
2023/09/20 06:10:07;;;;;;;14.60;5.32;;;538.00;2406.40;;;;;;5014401;28;20034;-75
2023/09/20 06:12:33;;;;;;;18.15;5.47;;;538.10;2406.40;;;;;;5026434;28;20061;-75
2023/09/20 06:14:59;;;;;;;9.73;4.30;;;538.40;2406.40;;;;;;5029684;28;20021;-75
2023/09/20 06:17:34;;;;;;;10.75;4.53;;;538.30;2406.40;;;;;;5032943;28;20018;-75
2023/09/20 06:20:00;;;;;;;10.35;4.40;;;538.50;2406.40;;;;;;5027181;28;20037;-75
2023/09/20 06:22:30;;;;;;;11.65;5.45;;;538.50;2406.40;;;;;;5027147;28;20034;-75
2023/09/20 06:24:59;;;;;;;15.95;4.30;;;563.30;2432.00;;;;;;5027898;28;20049;-75
2023/09/20 06:27:30;;;;;;;15.75;5.35;;;563.30;2432.00;;;;;;5019553;28;20485;-74
2023/09/20 06:29:57;;;;;;;10.73;4.68;;;563.40;2432.00;;;;;;5019446;28;20478;-74
2023/09/20 06:32:23;;;;;;;13.40;4.55;;;563.70;2432.00;;;;;;5019291;28;20025;-76
2023/09/20 06:34:48;;;;;;;12.80;3.90;;;564.00;2432.00;;;;;;5019689;28;20029;-76
2023/09/20 06:37:14;;;;;;;7.65;3.33;;;588.80;2432.00;;;;;;5020317;28;20033;-75
2023/09/20 06:39:41;;;;;;;7.90;3.33;;;589.10;2432.00;;;;;;5019471;28;20021;-76
2023/09/20 06:42:08;;;;;;;5.35;3.25;;;589.40;2432.00;;;;;;5034509;28;20049;-75
2023/09/20 06:44:38;;;;;;;7.18;3.50;;;589.70;2432.00;;;;;;5039202;28;20056;-74
2023/09/20 06:47:09;;;;;;;11.07;3.38;;;614.50;2432.00;;;;;;5039089;28;20034;-75
2023/09/20 06:49:38;;;;;;;8.60;3.07;;;614.70;2432.00;;;;;;5038821;28;20037;-76
2023/09/20 06:52:04;;;;;;;10.85;4.50;;;;;;;;;;5021359;28;20045;-76
2023/09/20 06:54:30;;;;;;;7.95;3.25;;;615.10;2432.00;;;;;;5038856;28;20032;-76
2023/09/20 06:57:03;;;;;;;8.88;4.32;;;640.00;2432.00;;;;;;5039013;28;20029;-76
2023/09/20 06:59:33;;;;;;;8.15;3.75;;;640.20;2432.00;;;;;;5038902;28;20025;-76
2023/09/20 07:02:00;;;;;;;11.88;4.30;;;640.60;2432.00;;;;;;5021235;28;20473;-76
2023/09/20 07:04:26;;;;;;;6.22;3.65;;;640.70;2432.00;;;;;;5038914;28;20092;-76
2023/09/20 07:06:55;;;;;;;6.75;3.40;;;665.60;2432.00;;;;;;5038753;28;20052;-76
2023/09/20 07:09:22;;;;;;;5.30;2.83;;;665.90;2432.00;;;;;;5034611;28;20029;-77
2023/09/20 07:11:50;;;;;;;7.53;3.92;;;666.00;2432.00;;;;;;5022706;28;20496;-77
2023/09/20 07:14:20;;;;;;;4.30;2.33;;;666.30;2406.40;;;;;;5035508;28;20057;-77
2023/09/20 07:16:51;;;;;;;8.60;2.70;;;666.40;2355.20;;;;;;5035687;28;20026;-77
2023/09/20 07:19:19;;;;;;;5.93;2.42;;;666.20;2329.60;;;;;;5035368;28;20013;-77
2023/09/20 07:21:45;;;;;;;6.10;2.00;;;666.50;2304.00;;;;;;5035618;28;20042;-77
2023/09/20 07:24:12;;;;;;;8.18;2.55;;;691.40;2252.80;;;;;;5035475;28;20106;-77
2023/09/20 07:26:44;;;;;;;8.10;2.10;;;691.60;2278.40;;;;;;5035614;28;20021;-78
2023/09/20 07:29:14;;;;;;;5.25;2.25;;;691.60;2227.20;;;;;;5035580;28;20033;-77
2023/09/20 07:31:40;;;;;;;4.88;1.95;;;691.50;2201.60;;;;;;5035336;28;20033;-77
2023/09/20 07:34:06;;;;;;;3.55;2.00;;;691.40;2176.00;;;;;;5035479;28;20469;-77
2023/09/20 07:36:36;;;;;;;5.95;2.40;;;691.80;2150.40;;;;;;5035197;28;20025;-77
2023/09/20 07:39:08;;;;;;;7.18;2.30;;;692.00;2150.40;;;;;;5017698;28;20071;-77
2023/09/20 07:41:34;;;;;;;6.82;2.85;;;716.80;2176.00;;;;;;5035301;28;20021;-78
2023/09/20 07:44:00;;;;;;;2.97;1.50;;;717.10;2150.40;;;;;;5035275;28;20026;-77
2023/09/20 07:46:26;;;;;;;6.18;1.85;;;717.20;2099.20;;;;;;5034957;28;20040;-77
2023/09/20 07:48:52;;;;;;;6.30;2.47;;;717.10;2073.60;;;;;;5035290;28;20355;-77
2023/09/20 07:51:24;;;;;;;4.93;2.30;;;717.30;2073.60;;;;;;5034683;28;20076;-76
2023/09/20 07:53:53;;;;;;;6.50;2.30;;;717.30;2022.40;;;;;;5035261;28;20063;-75
2023/09/20 07:56:20;;;;;;;6.03;2.17;;;;;;;;;;5017066;28;20440;-78
2023/09/20 07:58:46;;;;;;;5.90;1.90;;;742.50;1996.80;;;;;;5034747;28;20083;-75
2023/09/20 08:01:12;;;;;;;4.20;2.25;;;742.50;1996.80;;;;;;5035119;28;20024;-76
2023/09/20 08:03:39;;;;;;;12.70;2.42;;;742.40;1996.80;;;;;;5034820;28;20029;-77
2023/09/20 08:06:09;;;;;;;10.70;2.00;;;742.50;1945.60;;;;;;5034716;28;20373;-76
2023/09/20 08:08:37;;;;;;;4.07;2.00;;;742.60;1971.20;;;;;;5034679;28;20053;-75
2023/09/20 08:11:03;;;;;;;5.18;2.05;;;742.80;1920.00;;;;;;5034540;28;20504;-75
2023/09/20 08:13:29;;;;;;;5.47;2.13;;;742.80;1894.40;;;;;;5034507;28;20092;-76
2023/09/20 08:15:55;;;;;;;5.60;1.90;;;743.00;1894.40;;;;;;5034392;28;20466;-75
2023/09/20 08:21:05;;;;;;;5.20;2.10;;;742.80;1868.80;;;;;;5034173;28;20044;-77
2023/09/20 09:02:16;;;;;;;3.78;1.80;;;794.00;1638.40;;;;;;5033984;28;20041;-76
2023/09/20 09:04:47;;;;;;;6.10;1.95;;;793.70;1638.40;;;;;;5033562;28;20018;-77
2023/09/20 09:07:14;;;;;;;4.65;2.00;;;794.00;1638.40;;;;;;5033640;28;20404;-76
2023/09/20 09:09:40;;;;;;;3.67;1.90;;;794.20;1561.60;;;;;;5033275;28;20013;-77
2023/09/20 09:12:07;;;;;;;6.50;1.83;;;794.20;1561.60;;;;;;5033581;28;20377;-77
2023/09/20 09:14:37;;;;;;;4.22;1.92;;;794.30;1561.60;;;;;;5033541;28;20109;-76
2023/09/20 09:17:04;;;;;;;5.10;1.80;;;794.50;1536.00;;;;;;5033312;28;20034;-77
2023/09/20 09:19:30;;;;;;;7.85;2.00;;;794.50;1510.40;;;;;;5020274;28;20036;-78
2023/09/20 09:21:59;;;;;;;5.00;1.80;;;794.50;1510.40;;;;;;5033327;28;20076;-76
2023/09/20 09:24:27;;;;;;;5.75;2.28;;;;;;;;;;5033209;28;20514;-76
2023/09/20 09:27:05;;;;;;;3.75;2.03;;;;;;;;;;5033075;28;20022;-76
2023/09/20 09:29:32;;;;;;;7.75;1.98;;;;;;;;;;5033320;28;20432;-78
2023/09/20 09:32:00;;;;;;;7.65;2.10;;;;;;;;;;5032375;28;20030;-76
2023/09/20 09:34:26;;;;;;;4.85;2.35;;;;;;;;;;5033153;28;20095;-75
2023/09/20 09:36:55;;;;;;;3.72;2.00;;;819.50;1510.40;;;;;;5033143;28;20033;-77
2023/09/20 09:39:21;;;;;;;6.78;2.05;;;819.60;1484.80;;;;;;5033088;28;20044;-77
2023/09/20 09:41:47;;;;;;;4.57;2.25;;;794.50;1536.00;;;;;;5032793;28;20373;-79
2023/09/20 09:44:13;;;;;;;3.92;1.95;;;;;;;;;;5033149;28;20032;-76
2023/09/20 09:46:40;;;;;;;3.22;1.92;;;;;;;;;;5032987;28;20013;-75
2023/09/20 09:49:16;;;;;;;3.85;1.90;;;;;;;;;;5032822;28;20029;-76
2023/09/20 09:51:45;;;;;;;2.38;1.60;;;;;;;;;;5032670;28;20038;-77
2023/09/20 09:54:12;;;;;;;4.30;1.95;;;;;;;;;;5032976;28;20021;-76
2023/09/20 09:56:38;;;;;;;3.42;1.60;;;;;;;;;;5032426;28;20521;-75
2023/09/20 09:59:05;;;;;;;6.85;2.30;;;844.90;1459.20;;;;;;5032819;28;20053;-76
2023/09/20 10:01:36;;;;;;;4.32;2.10;;;820.00;1433.60;;;;;;5032558;28;20466;-76
2023/09/20 10:04:10;;;;;;;5.68;2.00;;;820.10;1484.80;;;;;;5015125;28;20048;-77
2023/09/20 10:06:44;;;;;;;5.50;2.08;;;844.90;1433.60;;;;;;5020439;28;20478;-76
2023/09/20 10:09:11;;;;;;;6.28;1.95;;;845.10;1459.20;;;;;;5032509;28;20078;-77
2023/09/20 10:11:41;;;;;;;8.38;1.98;;;844.90;1459.20;;;;;;5032940;28;20037;-77
2023/09/20 10:14:09;;;;;;;5.15;1.80;;;845.00;1433.60;;;;;;5015085;28;20033;-76
2023/09/20 10:16:36;;;;;;;6.57;2.67;;;845.20;1408.00;;;;;;5032978;28;20024;-76
2023/09/20 10:19:02;;;;;;;6.07;2.38;;;844.80;1459.20;;;;;;5032528;28;20470;-76
2023/09/20 10:21:31;;;;;;;3.80;1.77;;;844.90;1433.60;;;;;;5032702;28;20050;-76
2023/09/20 10:23:59;;;;;;;3.50;1.80;;;845.10;1433.60;;;;;;5032520;28;20025;-76
2023/09/20 10:41:00;;;;;;;4.10;1.95;;;;;;;;;;5101186;27;20440;-76
2023/09/20 10:43:34;;;;;;;5.35;2.30;;;870.90;1280.00;;;;;;5101497;28;20097;-77
2023/09/20 10:46:08;;;;;;;10.80;2.83;;;870.70;1331.20;;;;;;5089091;28;20059;-77
2023/09/20 10:48:35;;;;;;;5.07;2.38;;;870.80;1305.60;;;;;;5088066;28;20511;-78
2023/09/20 10:51:03;;;;;;;3.63;1.70;;;870.80;1280.00;;;;;;5099649;28;20378;-79
2023/09/20 10:53:56;;;;;;;6.60;2.00;;;870.90;1254.40;;;;;;5097881;28;20035;-78
2023/09/20 10:56:52;;;;;;;3.72;1.83;;;870.80;1280.00;;;;;;5089173;28;20074;-76
2023/09/20 10:59:23;;;;;;;3.50;1.90;;;870.50;1331.20;;;;;;5089079;28;20059;-78
2023/09/20 11:01:50;;;;;;;4.50;1.98;;;870.60;1305.60;;;;;;5087566;28;20480;-75
2023/09/20 11:04:16;;;;;;;4.00;2.80;;;870.80;1280.00;;;;;;5088998;28;20109;-78
2023/09/20 11:06:45;;;;;;;5.40;2.20;;;871.20;1280.00;;;;;;5087405;28;20020;-78
2023/09/20 11:09:13;;;;;;;8.77;3.42;;;871.20;1228.80;;;;;;5088748;28;20020;-76
2023/09/20 11:11:39;;;;;;;11.10;3.65;;;871.20;1254.40;;;;;;5088703;28;20099;-76
2023/09/20 11:14:06;;;;;;;4.47;2.53;;;871.30;1280.00;;;;;;5088769;28;20027;-76
2023/09/20 11:16:31;;;;;;;6.90;2.40;;;871.20;1228.80;;;;;;5088630;28;20073;-76
2023/09/20 11:18:58;;;;;;;5.57;1.92;;;871.10;1228.80;;;;;;5088531;28;20016;-76
2023/09/20 11:21:24;;;;;;;7.95;2.75;;;870.90;1254.40;;;;;;5088702;28;20095;-76
2023/09/20 11:23:53;;;;;;;5.55;2.15;;;871.10;1254.40;;;;;;5088597;28;20127;-78
2023/09/20 11:26:29;;;;;;;5.60;2.75;;;871.10;1228.80;;;;;;5087313;28;20423;-77
2023/09/20 11:28:55;;;;;;;;;;;871.20;1203.20;;;;;;5088751;28;20115;-77
2023/09/20 11:31:28;;;;;;;6.95;2.70;;;871.20;1228.80;;;;;;5088478;28;19946;-77
2023/09/20 11:34:02;;;;;;;3.75;1.90;;;871.10;1254.40;;;;;;5088368;28;20028;-78
2023/09/20 11:36:28;;;;;;;4.13;2.17;;;871.20;1254.40;;;;;;5088454;28;20042;-78
2023/09/20 11:38:54;;;;;;;7.22;2.85;;;870.80;1254.40;;;;;;5088086;28;20044;-78
2023/09/20 11:41:24;;;;;;;8.27;2.08;;;845.40;1305.60;;;;;;5076370;28;20037;-78
2023/09/20 11:44:05;;;;;;;6.05;2.08;;;844.80;1356.80;;;;;;5074783;28;20024;-79
2023/09/20 11:46:34;;;;;;;5.85;2.45;;;844.90;1331.20;;;;;;5074636;28;20454;-79
2023/09/20 11:49:03;;;;;;;5.38;2.28;;;845.40;1331.20;;;;;;5073110;28;20033;-77
2023/09/20 11:51:34;;;;;;;5.57;2.17;;;845.50;1305.60;;;;;;5074972;28;20020;-76
2023/09/20 11:54:03;;;;;;;4.10;1.98;;;845.70;1280.00;;;;;;5074384;28;20017;-76
2023/09/20 11:56:32;;;;;;;5.63;2.10;;;870.50;1254.40;;;;;;5073677;28;20021;-75
2023/09/20 11:59:01;;;;;;;3.90;1.92;;;870.60;1254.40;;;;;;5074058;28;20028;-76
2023/09/20 12:01:33;;;;;;;14.20;4.45;;;870.60;1280.00;;;;;;5074371;28;20020;-76
2023/09/20 12:03:59;;;;;;;11.55;2.03;;;870.70;1254.40;;;;;;5061613;28;20013;-76
2023/09/20 12:06:25;;;;;;;9.27;2.17;;;870.70;1228.80;;;;;;5074062;28;20025;-76
2023/09/20 12:08:53;;;;;;;7.03;3.15;;;870.80;1228.80;;;;;;5074324;28;20042;-76
2023/09/20 12:11:19;;;;;;;4.03;2.05;;;870.90;1228.80;;;;;;5073859;28;20426;-77
2023/09/20 12:13:46;;;;;;;5.90;2.53;;;870.70;1228.80;;;;;;5073955;28;20104;-77
2023/09/20 12:16:13;;;;;;;4.85;2.40;;;870.50;1280.00;;;;;;5070820;28;20381;-76
2023/09/20 12:18:38;;;;;;;4.50;2.50;;;870.50;1254.40;;;;;;5076373;28;20021;-76
2023/09/20 12:21:07;;;;;;;5.15;2.30;;;870.40;1254.40;;;;;;5090654;28;20384;-76
2023/09/20 12:23:35;;;;;;;6.78;2.75;;;870.60;1254.40;;;;;;5094352;28;20073;-76
2023/09/20 12:26:03;;;;;;;7.32;2.08;;;870.70;1280.00;;;;;;5080598;28;20083;-76
2023/09/20 12:28:32;;;;;;;5.45;2.45;;;870.70;1254.40;;;;;;5089892;28;20529;-77
2023/09/20 12:30:58;;;;;;;5.57;2.42;;;870.70;1228.80;;;;;;5093755;28;20031;-76
2023/09/20 12:33:27;;;;;;;5.38;1.65;;;870.50;1228.80;;;;;;5092442;28;20107;-76
2023/09/20 12:35:54;;;;;;;3.67;1.98;;;870.50;1228.80;;;;;;5083456;28;20035;-76
2023/09/20 12:38:20;;;;;;;5.78;1.98;;;870.60;1203.20;;;;;;5072073;28;20029;-77
2023/09/20 12:40:47;;;;;;;3.92;1.92;;;870.60;1228.80;;;;;;5072123;28;20110;-77
2023/09/20 12:43:17;;;;;;;4.40;2.38;;;870.70;1254.40;;;;;;5073699;28;20021;-77
2023/09/20 12:45:43;;;;;;;3.13;1.83;;;870.80;1203.20;;;;;;5071927;28;20043;-75
2023/09/20 12:48:13;;;;;;;4.05;1.92;;;870.70;1228.80;;;;;;5073521;28;20017;-76
2023/09/20 12:50:41;;;;;;;6.22;1.90;;;870.60;1203.20;;;;;;5073334;28;20078;-76
2023/09/20 12:53:08;;;;;;;3.53;2.00;;;870.70;1177.60;;;;;;5072474;28;20033;-76
2023/09/20 12:55:42;;;;;;;4.45;2.00;;;870.70;1228.80;;;;;;5073087;28;20028;-75
2023/09/20 12:58:10;;;;;;;3.55;1.75;;;845.70;1203.20;;;;;;5073201;28;20021;-75
2023/09/20 13:00:40;;;;;;;5.80;2.13;;;870.50;1203.20;;;;;;5073317;28;20025;-76
2023/09/20 13:03:08;;;;;;;5.05;2.10;;;870.40;1228.80;;;;;;5072943;28;20062;-74
2023/09/20 13:05:35;;;;;;;3.60;1.70;;;870.50;1203.20;;;;;;5073113;28;20024;-75
2023/09/20 13:08:01;;;;;;;5.20;2.17;;;870.60;1228.80;;;;;;5072989;28;20482;-76
2023/09/20 13:10:27;;;;;;;3.60;1.95;;;870.70;1177.60;;;;;;5072795;28;20162;-76
2023/09/20 13:12:53;;;;;;;2.88;1.88;;;870.70;1177.60;;;;;;5072806;28;20017;-77
2023/09/20 13:15:20;;;;;;;5.70;1.92;;;870.60;1177.60;;;;;;5072838;28;20051;-76
2023/09/20 13:17:55;;;;;;;4.03;1.92;;;870.70;1203.20;;;;;;5071957;28;20039;-75
2023/09/20 13:20:24;;;;;;;3.00;1.65;;;870.70;1203.20;;;;;;5072575;28;20066;-75
2023/09/20 13:22:52;;;;;;;3.08;1.92;;;870.80;1177.60;;;;;;5071594;28;20035;-76
2023/09/20 13:25:19;;;;;;;2.72;1.75;;;870.90;1203.20;;;;;;5071114;28;20613;-75
2023/09/20 13:27:47;;;;;;;7.00;2.40;;;870.70;1203.20;;;;;;5072810;28;20070;-76
2023/09/20 13:30:14;;;;;;;6.03;2.17;;;870.60;1228.80;;;;;;5072391;28;20036;-76